Time;durP1;ratioP1;P1;durP2;ratioP2;P2;SDS_P1;SDS_P2;PMS_P1;PMS_P2;Temp;Humidity;BMP_temperature;BMP_pressure;BME280_temperature;BME280_humidity;BME280_pressure;Samples;Min_cycle;Max_cycle;Signal;HPM_P1;HPM_P2
2021/06/05 00:00:59;;;;;;;15.43;13.93;;;18.90;87.70;;;;;;5008244;28;20037;-76
2021/06/05 00:03:25;;;;;;;14.82;13.13;;;18.80;87.60;;;;;;4993680;28;20030;-85
2021/06/05 00:05:52;;;;;;;15.00;13.60;;;18.70;87.80;;;;;;5005656;28;20112;-76
2021/06/05 00:08:21;;;;;;;15.90;14.15;;;18.60;88.20;;;;;;5013234;28;20026;-76
2021/06/05 00:10:57;;;;;;;16.00;14.30;;;18.50;88.50;;;;;;5012189;28;20662;-75
2021/06/05 00:13:32;;;;;;;15.73;14.00;;;18.60;88.50;;;;;;5013326;28;20029;-75
2021/06/05 00:15:58;;;;;;;15.75;13.98;;;18.60;88.40;;;;;;4995221;28;20027;-75
2021/06/05 00:18:24;;;;;;;16.38;14.70;;;18.60;88.30;;;;;;5002169;28;20053;-78
2021/06/05 00:20:51;;;;;;;16.90;15.10;;;18.60;88.40;;;;;;5006828;28;20041;-77
2021/06/05 00:23:21;;;;;;;15.50;14.05;;;18.60;88.40;;;;;;5009999;28;20034;-75
2021/06/05 00:25:48;;;;;;;16.55;14.90;;;18.50;88.40;;;;;;5007666;28;20491;-76
2021/06/05 00:28:15;;;;;;;16.85;14.93;;;18.60;88.50;;;;;;5013171;28;20053;-76
2021/06/05 00:30:41;;;;;;;17.92;16.02;;;18.60;88.40;;;;;;5011320;28;20034;-75
2021/06/05 00:33:07;;;;;;;16.95;15.23;;;18.60;88.40;;;;;;4995613;28;20161;-74
2021/06/05 00:35:34;;;;;;;18.73;16.02;;;18.50;88.30;;;;;;4994481;28;20041;-75
2021/06/05 00:38:00;;;;;;;17.02;15.20;;;18.50;88.60;;;;;;5011680;28;20426;-75
2021/06/05 00:40:29;;;;;;;18.33;15.73;;;18.40;88.70;;;;;;5012135;28;20089;-75
2021/06/05 00:42:57;;;;;;;19.08;16.88;;;18.40;88.80;;;;;;5011154;28;20034;-75
2021/06/05 00:45:25;;;;;;;18.77;16.88;;;18.50;88.80;;;;;;5012848;28;20018;-75
2021/06/05 00:47:51;;;;;;;18.80;16.88;;;18.50;88.80;;;;;;5010941;28;20030;-74
2021/06/05 00:50:17;;;;;;;17.75;16.05;;;18.50;88.70;;;;;;5011035;28;20038;-76
2021/06/05 00:52:45;;;;;;;17.88;15.95;;;18.50;88.70;;;;;;5009551;28;20030;-75
2021/06/05 00:55:13;;;;;;;18.17;16.45;;;18.50;88.60;;;;;;4997093;28;20057;-76
2021/06/05 00:57:38;;;;;;;18.65;16.67;;;18.50;88.60;;;;;;5009908;28;20461;-76
2021/06/05 01:00:18;;;;;;;18.00;16.20;;;18.60;88.50;;;;;;5009809;28;20049;-75
2021/06/05 01:02:44;;;;;;;18.50;16.60;;;18.60;88.50;;;;;;5011263;28;20065;-76
2021/06/05 01:05:10;;;;;;;18.23;16.33;;;18.60;88.30;;;;;;5011358;28;20026;-74
2021/06/05 01:07:38;;;;;;;18.30;16.45;;;18.60;88.10;;;;;;5010572;28;20029;-75
2021/06/05 01:10:14;;;;;;;17.45;15.80;;;18.70;88.20;;;;;;5001154;28;20081;-74
2021/06/05 01:13:08;;;;;;;19.17;17.15;;;18.70;88.00;;;;;;5009118;28;20022;-76
2021/06/05 01:15:44;;;;;;;18.55;16.73;;;18.70;88.00;;;;;;5009912;28;20026;-83
2021/06/05 01:18:23;;;;;;;17.85;15.98;;;18.70;88.00;;;;;;5009516;28;20368;-75
2021/06/05 01:21:00;;;;;;;18.58;16.55;;;18.80;87.90;;;;;;5009021;28;20033;-75
2021/06/05 01:24:04;;;;;;;16.88;15.18;;;18.70;87.70;;;;;;5008397;28;20041;-76
2021/06/05 01:26:33;;;;;;;17.80;16.00;;;18.70;87.80;;;;;;4980294;28;20159;-76
2021/06/05 01:28:58;;;;;;;18.30;16.40;;;18.70;87.80;;;;;;4992711;28;20032;-76
2021/06/05 01:31:35;;;;;;;18.30;16.50;;;18.70;87.70;;;;;;5009482;28;20445;-75
2021/06/05 01:34:01;;;;;;;17.40;15.70;;;18.70;87.80;;;;;;5015105;28;20036;-76
2021/06/05 01:36:27;;;;;;;17.38;15.60;;;18.70;87.70;;;;;;5014748;28;20116;-76
2021/06/05 01:39:00;;;;;;;18.13;16.38;;;18.60;87.90;;;;;;4998499;28;20044;-74
2021/06/05 01:41:27;;;;;;;;;;;18.50;88.00;;;;;;5013942;28;20030;-75
2021/06/05 01:43:53;;;;;;;19.05;17.08;;;18.50;88.20;;;;;;5013024;28;19925;-75
2021/06/05 01:46:21;;;;;;;18.85;16.92;;;18.40;88.40;;;;;;5013769;28;20121;-75
2021/06/05 01:48:47;;;;;;;20.15;17.05;;;18.40;88.50;;;;;;5011991;28;20088;-75
2021/06/05 01:51:16;;;;;;;17.80;16.00;;;18.30;88.60;;;;;;4996669;28;20030;-75
2021/06/05 01:53:50;;;;;;;18.98;17.17;;;18.20;88.80;;;;;;5013473;28;20029;-76
2021/06/05 01:56:34;;;;;;;20.42;18.52;;;18.10;88.90;;;;;;5012935;28;20036;-74
2021/06/05 01:59:02;;;;;;;20.45;18.35;;;18.10;89.20;;;;;;4996717;28;20017;-76
2021/06/05 02:01:29;;;;;;;21.00;18.77;;;17.90;89.40;;;;;;5013726;28;20080;-75
2021/06/05 02:03:54;;;;;;;20.20;18.30;;;17.90;89.60;;;;;;5012849;28;20556;-76
2021/06/05 02:06:22;;;;;;;22.33;17.80;;;18.00;89.70;;;;;;4994914;28;20034;-75
2021/06/05 02:08:48;;;;;;;19.40;17.50;;;18.00;89.70;;;;;;5012934;28;20026;-75
2021/06/05 02:11:18;;;;;;;20.35;17.83;;;18.00;89.70;;;;;;5013386;28;20030;-77
2021/06/05 02:13:52;;;;;;;18.85;16.92;;;18.10;89.50;;;;;;5012201;28;20547;-77
2021/06/05 02:16:25;;;;;;;20.15;18.13;;;18.20;89.30;;;;;;5012966;28;20026;-75
2021/06/05 02:18:56;;;;;;;18.48;16.67;;;18.20;89.10;;;;;;5011219;28;20029;-75
2021/06/05 02:21:24;;;;;;;20.70;18.60;;;18.10;89.10;;;;;;5013358;28;20018;-75
2021/06/05 02:24:03;;;;;;;20.40;18.40;;;18.10;89.20;;;;;;5011645;28;20034;-81
2021/06/05 02:26:29;;;;;;;20.98;18.77;;;18.00;89.30;;;;;;4994399;28;20022;-75
2021/06/05 02:28:58;;;;;;;19.83;17.83;;;17.90;89.40;;;;;;5005741;28;20033;-74
2021/06/05 02:31:26;;;;;;;21.10;18.80;;;17.90;89.50;;;;;;5013039;28;20496;-75
2021/06/05 02:33:52;;;;;;;22.30;20.00;;;17.80;89.70;;;;;;5011726;28;20501;-75
2021/06/05 02:36:18;;;;;;;20.65;18.55;;;17.80;89.80;;;;;;5012933;28;20034;-75
2021/06/05 02:38:47;;;;;;;20.13;17.88;;;17.70;90.00;;;;;;5012726;28;20097;-76
2021/06/05 02:41:16;;;;;;;21.48;19.27;;;17.80;90.10;;;;;;5010050;28;20121;-76
2021/06/05 02:43:44;;;;;;;22.27;19.90;;;17.80;90.00;;;;;;5012906;28;20034;-82
2021/06/05 02:46:17;;;;;;;22.63;18.85;;;17.90;90.00;;;;;;5013299;28;20508;-76
2021/06/05 02:48:48;;;;;;;20.55;18.33;;;17.90;90.00;;;;;;5012027;28;20033;-83
2021/06/05 02:51:17;;;;;;;20.30;18.17;;;18.00;89.90;;;;;;5012919;28;20113;-75
2021/06/05 02:53:42;;;;;;;20.65;18.45;;;18.10;89.60;;;;;;5012088;28;20116;-83
2021/06/05 02:56:10;;;;;;;19.85;17.75;;;18.20;89.30;;;;;;4996212;28;20066;-76
2021/06/05 02:58:37;;;;;;;20.50;18.25;;;18.30;89.00;;;;;;5011922;28;20056;-76
2021/06/05 03:01:05;;;;;;;23.08;18.85;;;18.40;88.60;;;;;;4996262;28;20018;-75
2021/06/05 03:03:31;;;;;;;19.52;17.50;;;18.50;88.40;;;;;;5009519;28;20076;-75
2021/06/05 03:05:57;;;;;;;19.60;17.42;;;18.60;88.20;;;;;;5013292;28;20101;-76
2021/06/05 03:08:27;;;;;;;20.33;18.23;;;18.70;88.00;;;;;;4992180;28;20454;-75
2021/06/05 03:10:53;;;;;;;20.50;18.15;;;18.70;87.90;;;;;;4992102;28;20030;-75
2021/06/05 03:13:20;;;;;;;22.20;19.23;;;18.70;87.70;;;;;;4994918;28;20034;-77
2021/06/05 03:15:48;;;;;;;19.73;17.40;;;18.80;87.50;;;;;;5011679;28;20485;-83
2021/06/05 03:18:15;;;;;;;20.35;18.15;;;18.80;87.40;;;;;;5012831;28;20038;-77
2021/06/05 03:20:44;;;;;;;19.92;17.85;;;18.80;87.40;;;;;;5004146;28;20026;-77
2021/06/05 03:23:14;;;;;;;21.90;17.90;;;18.80;87.40;;;;;;5012811;28;20034;-76
2021/06/05 03:25:40;;;;;;;22.83;18.65;;;18.90;87.40;;;;;;5009718;28;20021;-76
2021/06/05 03:28:06;;;;;;;22.58;19.85;;;18.90;87.30;;;;;;4992843;28;20201;-76
2021/06/05 03:30:34;;;;;;;22.90;19.83;;;18.80;87.40;;;;;;5010182;28;20471;-76
2021/06/05 03:32:59;;;;;;;26.17;20.90;;;18.80;87.50;;;;;;5010078;28;20092;-76
2021/06/05 03:35:25;;;;;;;22.95;20.17;;;18.70;87.60;;;;;;4994957;28;20039;-76
2021/06/05 03:37:51;;;;;;;28.25;21.63;;;18.70;87.70;;;;;;5012146;28;20063;-76
2021/06/05 03:40:20;;;;;;;28.13;22.90;;;18.60;87.90;;;;;;5011267;28;20100;-75
2021/06/05 03:42:46;;;;;;;25.77;21.52;;;18.60;88.00;;;;;;5011810;28;20040;-82
2021/06/05 03:45:12;;;;;;;32.13;21.83;;;18.50;88.20;;;;;;5011330;28;20101;-76
2021/06/05 03:47:40;;;;;;;30.45;22.20;;;18.50;88.20;;;;;;5011412;28;20049;-76
2021/06/05 03:50:09;;;;;;;33.40;22.40;;;18.50;88.10;;;;;;5011472;28;20052;-76
2021/06/05 03:52:34;;;;;;;31.92;24.58;;;18.60;88.10;;;;;;5012745;28;20030;-76
2021/06/05 03:55:00;;;;;;;36.90;24.00;;;18.60;88.00;;;;;;5011043;28;20394;-76
2021/06/05 03:57:27;;;;;;;35.20;25.83;;;18.70;87.90;;;;;;5011792;28;20076;-76
2021/06/05 03:59:55;;;;;;;45.72;30.38;;;18.80;87.70;;;;;;5012176;28;20522;-77
2021/06/05 04:02:22;;;;;;;56.88;35.15;;;18.80;87.60;;;;;;5012713;28;20120;-76
2021/06/05 04:04:47;;;;;;;52.42;33.80;;;18.80;87.60;;;;;;5008566;28;20040;-75
2021/06/05 04:07:13;;;;;;;51.30;34.03;;;18.80;87.60;;;;;;5004084;28;20038;-74
2021/06/05 04:09:40;;;;;;;38.95;30.02;;;18.80;87.60;;;;;;5012459;28;20470;-75
2021/06/05 04:12:09;;;;;;;43.88;30.65;;;18.90;87.60;;;;;;5010942;28;20034;-75
2021/06/05 04:14:34;;;;;;;47.47;34.45;;;18.90;87.30;;;;;;5009839;28;20030;-76
2021/06/05 04:17:00;;;;;;;50.50;35.78;;;18.90;87.10;;;;;;5011765;28;20032;-75
2021/06/05 04:19:26;;;;;;;51.85;36.42;;;18.90;87.10;;;;;;5010684;28;20095;-74
2021/06/05 04:21:53;;;;;;;50.22;35.33;;;18.90;87.10;;;;;;5010450;28;20045;-82
2021/06/05 04:24:20;;;;;;;49.35;35.10;;;18.90;87.10;;;;;;5009148;28;20457;-74
2021/06/05 04:26:46;;;;;;;51.55;35.38;;;19.00;87.20;;;;;;5010798;28;20046;-75
2021/06/05 04:29:12;;;;;;;55.20;37.75;;;18.90;87.10;;;;;;5011552;28;20022;-75
2021/06/05 04:31:38;;;;;;;57.05;38.72;;;18.90;87.20;;;;;;5010973;28;20041;-76
2021/06/05 04:34:04;;;;;;;49.45;34.72;;;18.90;87.30;;;;;;5011037;28;20030;-76
2021/06/05 04:36:30;;;;;;;52.53;37.75;;;18.80;87.40;;;;;;5012182;28;20037;-76
2021/06/05 04:38:56;;;;;;;51.28;37.58;;;18.90;87.30;;;;;;5007865;28;20022;-83
2021/06/05 04:41:22;;;;;;;53.95;39.45;;;18.90;87.20;;;;;;5010267;28;20112;-79
2021/06/05 04:43:48;;;;;;;53.13;38.28;;;18.90;87.30;;;;;;4994933;28;20491;-75
2021/06/05 04:46:15;;;;;;;54.28;37.92;;;18.80;87.40;;;;;;4990965;28;20605;-76
2021/06/05 04:48:43;;;;;;;54.35;40.17;;;18.80;87.50;;;;;;4994212;28;20030;-75
2021/06/05 04:51:09;;;;;;;54.95;37.97;;;18.80;87.50;;;;;;5011428;28;20030;-75
2021/06/05 04:53:35;;;;;;;49.88;35.83;;;18.80;87.60;;;;;;5011053;28;20560;-74
2021/06/05 04:56:01;;;;;;;47.88;36.08;;;18.80;87.60;;;;;;4977692;28;20122;-76
2021/06/05 04:58:27;;;;;;;53.33;37.00;;;18.80;87.50;;;;;;5010246;28;20041;-75
2021/06/05 05:00:54;;;;;;;54.13;38.08;;;18.80;87.50;;;;;;5010932;28;20022;-76
2021/06/05 05:03:23;;;;;;;50.53;36.40;;;18.90;87.40;;;;;;5010955;28;20483;-78
2021/06/05 05:05:50;;;;;;;48.25;35.83;;;18.90;87.30;;;;;;5011428;28;20118;-75
2021/06/05 05:08:17;;;;;;;48.97;36.38;;;18.90;87.20;;;;;;5011582;28;20054;-75
2021/06/05 05:10:47;;;;;;;50.42;36.03;;;18.90;87.20;;;;;;5012766;28;20356;-75
2021/06/05 05:13:19;;;;;;;49.60;35.03;;;19.00;87.20;;;;;;5012616;28;20029;-76
2021/06/05 05:15:46;;;;;;;44.20;32.20;;;19.00;87.00;;;;;;5013794;28;20030;-75
2021/06/05 05:18:12;;;;;;;54.10;36.53;;;19.00;86.80;;;;;;5013595;28;20030;-75
2021/06/05 05:20:40;;;;;;;49.92;34.13;;;19.10;86.60;;;;;;5014620;28;20038;-75
2021/06/05 05:23:06;;;;;;;53.55;34.78;;;19.20;86.50;;;;;;4997567;28;20131;-75
2021/06/05 05:25:33;;;;;;;54.88;36.63;;;19.30;86.50;;;;;;5012322;28;20040;-77
2021/06/05 05:28:00;;;;;;;51.05;34.30;;;19.30;86.30;;;;;;5014757;28;20085;-81
2021/06/05 05:30:39;;;;;;;54.22;34.75;;;19.40;86.30;;;;;;5015357;28;20026;-75
2021/06/05 05:33:06;;;;;;;53.53;37.08;;;19.50;86.00;;;;;;5014640;28;20033;-75
2021/06/05 05:35:33;;;;;;;50.45;34.42;;;19.50;85.80;;;;;;5010013;28;20069;-74
2021/06/05 05:38:00;;;;;;;58.90;37.55;;;19.60;85.70;;;;;;4999747;28;20433;-81
2021/06/05 05:40:27;;;;;;;57.92;35.83;;;19.50;85.60;;;;;;5005658;28;20054;-75
2021/06/05 05:42:53;;;;;;;49.42;33.35;;;19.60;85.60;;;;;;4994886;28;20035;-75
2021/06/05 05:45:19;;;;;;;49.20;33.45;;;19.60;85.60;;;;;;4977062;28;20043;-74
2021/06/05 05:47:45;;;;;;;54.75;34.95;;;19.70;85.40;;;;;;5011482;28;20026;-74
2021/06/05 05:50:13;;;;;;;45.08;30.27;;;19.70;85.30;;;;;;5014286;28;20037;-75
2021/06/05 05:52:39;;;;;;;55.22;35.20;;;19.80;85.20;;;;;;5014369;28;20040;-75
2021/06/05 05:55:07;;;;;;;57.33;36.53;;;19.90;85.00;;;;;;5013338;28;20034;-76
2021/06/05 05:57:33;;;;;;;54.50;35.08;;;19.90;84.70;;;;;;5001021;28;20076;-75
2021/06/05 05:59:59;;;;;;;56.67;36.60;;;20.00;84.80;;;;;;5014639;28;20534;-76
2021/06/05 06:02:25;;;;;;;60.60;38.30;;;20.00;84.70;;;;;;5012058;28;20137;-74
2021/06/05 06:04:50;;;;;;;58.80;37.75;;;20.00;84.60;;;;;;4992709;28;20542;-74
2021/06/05 06:07:16;;;;;;;55.92;35.58;;;20.00;84.70;;;;;;4994781;28;20032;-75
2021/06/05 06:09:42;;;;;;;52.15;33.75;;;20.00;84.80;;;;;;5010077;28;20452;-77
2021/06/05 06:12:08;;;;;;;50.30;34.92;;;20.10;84.60;;;;;;5012081;28;20041;-74
2021/06/05 06:14:34;;;;;;;51.80;36.72;;;20.10;84.30;;;;;;4989134;28;20109;-75
2021/06/05 06:17:00;;;;;;;49.67;34.05;;;20.30;84.10;;;;;;4985831;28;20128;-74
2021/06/05 06:19:26;;;;;;;46.42;34.33;;;20.30;83.80;;;;;;5002092;28;20045;-75
2021/06/05 06:21:51;;;;;;;53.70;39.15;;;20.40;83.40;;;;;;5010410;28;20061;-74
2021/06/05 06:24:17;;;;;;;59.53;43.70;;;20.50;83.20;;;;;;5010264;28;20026;-75
2021/06/05 06:26:43;;;;;;;63.17;46.47;;;20.50;83.00;;;;;;5024004;28;20036;-75
2021/06/05 06:29:15;;;;;;;62.65;47.13;;;20.60;82.80;;;;;;5011608;28;20036;-75
2021/06/05 06:31:41;;;;;;;65.05;47.70;;;20.60;82.70;;;;;;5013215;28;20026;-73
2021/06/05 06:34:08;;;;;;;60.38;45.03;;;20.60;82.60;;;;;;5011251;28;20092;-80
2021/06/05 06:36:35;;;;;;;56.42;42.53;;;20.60;82.50;;;;;;5011937;28;20463;-74
2021/06/05 06:39:01;;;;;;;55.03;41.47;;;20.70;82.40;;;;;;5012142;28;20470;-74
2021/06/05 06:41:28;;;;;;;51.13;39.67;;;20.70;82.30;;;;;;4983349;28;20019;-75
2021/06/05 06:43:56;;;;;;;49.83;37.47;;;20.70;82.40;;;;;;4995876;28;20449;-73
2021/06/05 06:46:25;;;;;;;49.78;37.28;;;20.60;82.40;;;;;;5010285;28;20036;-73
2021/06/05 06:48:53;;;;;;;50.28;37.28;;;20.50;82.70;;;;;;5012175;28;20064;-74
2021/06/05 06:51:20;;;;;;;50.95;38.25;;;20.60;82.80;;;;;;5011721;28;20034;-73
2021/06/05 06:53:46;;;;;;;56.47;41.90;;;20.60;82.80;;;;;;5013670;28;20085;-74
2021/06/05 06:56:12;;;;;;;60.38;43.47;;;20.60;82.90;;;;;;5009974;28;20026;-75
2021/06/05 06:58:38;;;;;;;65.35;45.45;;;20.60;83.00;;;;;;5006183;28;20041;-74
2021/06/05 07:01:05;;;;;;;64.05;45.22;;;20.50;83.00;;;;;;5013852;28;20425;-74
2021/06/05 07:03:31;;;;;;;68.78;49.75;;;20.50;83.00;;;;;;5010133;28;20069;-75
2021/06/05 07:05:56;;;;;;;76.10;51.35;;;20.40;83.20;;;;;;5001210;28;20140;-74
2021/06/05 07:08:24;;;;;;;87.82;58.22;;;20.30;83.40;;;;;;4989556;28;20533;-74
2021/06/05 07:10:56;;;;;;;95.38;64.88;;;20.20;83.50;;;;;;5012027;28;20386;-74
2021/06/05 07:13:23;;;;;;;100.07;68.28;;;20.20;83.70;;;;;;5008413;28;20037;-75
2021/06/05 07:15:48;;;;;;;112.40;74.72;;;20.10;83.80;;;;;;5011032;28;20104;-74
2021/06/05 07:18:16;;;;;;;111.32;75.50;;;20.10;84.10;;;;;;5007602;28;20169;-80
2021/06/05 07:20:45;;;;;;;112.22;75.15;;;20.10;84.10;;;;;;5007188;28;20379;-74
2021/06/05 07:23:11;;;;;;;105.50;71.95;;;20.00;84.10;;;;;;5012770;28;20426;-80
2021/06/05 07:25:37;;;;;;;111.95;74.93;;;20.00;84.20;;;;;;5008775;28;20036;-74
2021/06/05 07:28:15;;;;;;;110.78;73.35;;;20.00;84.20;;;;;;5012399;28;20411;-74
2021/06/05 07:30:41;;;;;;;122.30;77.78;;;20.00;84.30;;;;;;5011724;28;20033;-74
2021/06/05 07:33:07;;;;;;;119.50;76.97;;;20.00;84.30;;;;;;5011057;28;20030;-74
2021/06/05 07:35:32;;;;;;;125.45;77.68;;;19.90;84.50;;;;;;5008378;28;20026;-73
2021/06/05 07:37:58;;;;;;;120.85;77.30;;;19.90;84.60;;;;;;4994294;28;20037;-74
2021/06/05 07:40:24;;;;;;;124.13;78.57;;;19.90;84.60;;;;;;5008525;28;20489;-73
2021/06/05 07:42:49;;;;;;;122.72;76.57;;;19.90;84.60;;;;;;5012684;28;20470;-73
2021/06/05 07:45:15;;;;;;;134.30;80.47;;;20.00;84.50;;;;;;5011635;28;20044;-78
2021/06/05 07:47:41;;;;;;;127.13;79.38;;;19.90;84.50;;;;;;5012917;28;20034;-74
2021/06/05 07:50:11;;;;;;;126.70;80.20;;;19.90;84.70;;;;;;5010046;28;20067;-78
2021/06/05 07:52:37;;;;;;;131.30;81.13;;;19.80;84.90;;;;;;4983011;28;20049;-74
2021/06/05 07:55:05;;;;;;;137.68;84.43;;;19.80;85.20;;;;;;5006002;28;20048;-72
2021/06/05 07:57:31;;;;;;;125.47;78.78;;;19.70;85.30;;;;;;5010871;28;20072;-75
2021/06/05 07:59:57;;;;;;;136.07;83.57;;;19.70;85.30;;;;;;5011538;28;20026;-74
2021/06/05 08:02:23;;;;;;;135.98;83.70;;;19.70;85.40;;;;;;5010609;28;20049;-74
2021/06/05 08:04:48;;;;;;;118.93;76.15;;;19.70;85.40;;;;;;5007720;28;20038;-73
2021/06/05 08:07:14;;;;;;;125.03;78.53;;;19.70;85.40;;;;;;5010405;28;20053;-80
2021/06/05 08:09:40;;;;;;;113.32;74.38;;;19.70;85.30;;;;;;5009896;28;20437;-75
2021/06/05 08:12:07;;;;;;;113.22;75.03;;;19.80;85.30;;;;;;4994948;28;20022;-75
2021/06/05 08:14:33;;;;;;;112.35;76.03;;;19.80;85.20;;;;;;5010443;28;20026;-75
2021/06/05 08:16:59;;;;;;;104.40;72.03;;;19.70;85.30;;;;;;5011518;28;20034;-74
2021/06/05 08:19:24;;;;;;;106.32;74.47;;;19.80;85.80;;;;;;5008156;28;20498;-77
2021/06/05 08:21:50;;;;;;;99.40;69.63;;;19.80;85.30;;;;;;4992951;28;20022;-75
2021/06/05 08:24:18;;;;;;;99.75;68.72;;;19.90;85.30;;;;;;5011565;28;20085;-80
2021/06/05 08:26:45;;;;;;;92.72;66.35;;;19.90;85.20;;;;;;5010504;28;20068;-73
2021/06/05 08:29:11;;;;;;;89.75;64.88;;;19.90;85.10;;;;;;5009659;28;20057;-74
2021/06/05 08:31:37;;;;;;;90.60;64.45;;;19.90;85.10;;;;;;5009532;28;20032;-75
2021/06/05 08:34:04;;;;;;;84.82;62.00;;;19.80;85.50;;;;;;5009594;28;20067;-75
2021/06/05 08:36:30;;;;;;;89.78;65.07;;;19.80;85.20;;;;;;5010047;28;20534;-75
2021/06/05 08:38:57;;;;;;;86.43;61.92;;;19.80;85.20;;;;;;5012597;28;20113;-75
2021/06/05 08:41:35;;;;;;;87.35;61.17;;;19.80;85.30;;;;;;5014513;28;20088;-78
2021/06/05 08:44:09;;;;;;;81.45;59.78;;;19.80;85.30;;;;;;5013996;28;20037;-75
2021/06/05 08:46:40;;;;;;;86.97;61.63;;;19.90;85.20;;;;;;5015359;28;20108;-75
2021/06/05 08:49:16;;;;;;;78.50;59.47;;;19.80;85.20;;;;;;5015084;28;20036;-74
2021/06/05 08:52:07;;;;;;;79.80;58.65;;;19.80;85.10;;;;;;5012704;28;20635;-73
2021/06/05 08:54:38;;;;;;;76.40;57.85;;;19.80;85.10;;;;;;5012905;28;20030;-74
2021/06/05 08:57:18;;;;;;;73.45;53.97;;;19.80;85.10;;;;;;5015949;28;20018;-74
2021/06/05 08:59:46;;;;;;;68.60;54.22;;;19.80;85.10;;;;;;5017393;28;20039;-74
2021/06/05 09:02:12;;;;;;;78.72;58.78;;;19.90;85.00;;;;;;4995967;28;20486;-74
2021/06/05 09:04:39;;;;;;;81.47;61.85;;;19.90;84.90;;;;;;5000462;28;20121;-75
2021/06/05 09:07:08;;;;;;;83.10;61.22;;;19.90;84.80;;;;;;5014468;28;20409;-75
2021/06/05 09:09:40;;;;;;;76.93;55.55;;;19.90;84.90;;;;;;5014224;28;20033;-75
2021/06/05 09:12:07;;;;;;;74.13;56.08;;;19.90;85.00;;;;;;5015666;28;20030;-75
2021/06/05 09:14:33;;;;;;;69.55;52.72;;;19.90;85.00;;;;;;4992617;28;20026;-75
2021/06/05 09:17:02;;;;;;;74.78;55.47;;;19.90;85.00;;;;;;4998065;28;20041;-76
2021/06/05 09:19:35;;;;;;;75.90;56.05;;;20.00;84.90;;;;;;5004093;28;20030;-74
2021/06/05 09:22:18;;;;;;;77.38;54.22;;;20.10;84.70;;;;;;5012294;28;20037;-73
2021/06/05 09:24:46;;;;;;;80.97;59.70;;;20.20;84.30;;;;;;5012883;28;20161;-74
2021/06/05 09:27:17;;;;;;;75.55;54.80;;;20.30;84.10;;;;;;5012760;28;20145;-74
2021/06/05 09:30:05;;;;;;;75.75;55.55;;;20.30;84.00;;;;;;5013587;28;20994;-74
2021/06/05 09:32:53;;;;;;;84.13;60.13;;;20.30;84.00;;;;;;5013561;28;20025;-74
2021/06/05 09:35:25;;;;;;;76.40;56.78;;;20.30;83.90;;;;;;5009586;28;20045;-73
2021/06/05 09:38:12;;;;;;;87.13;61.08;;;20.30;83.90;;;;;;5014293;28;20100;-73
2021/06/05 09:40:37;;;;;;;86.47;60.47;;;20.30;83.90;;;;;;5013102;28;20439;-74
2021/06/05 09:43:09;;;;;;;81.72;57.55;;;20.40;83.80;;;;;;5012712;28;20038;-74
2021/06/05 09:45:42;;;;;;;82.88;57.58;;;20.30;83.70;;;;;;5012951;28;20037;-73
2021/06/05 09:48:14;;;;;;;86.70;58.83;;;20.30;83.60;;;;;;4999785;28;20030;-73
2021/06/05 09:50:42;;;;;;;95.33;59.87;;;20.40;83.50;;;;;;5013024;28;20030;-75
2021/06/05 09:53:33;;;;;;;86.93;59.47;;;20.50;83.50;;;;;;5014810;28;20069;-75
2021/06/05 09:56:02;;;;;;;88.63;57.38;;;20.50;83.30;;;;;;5009677;28;20116;-74
2021/06/05 09:58:42;;;;;;;94.25;59.00;;;20.50;83.20;;;;;;5013767;28;20359;-79
2021/06/05 10:01:12;;;;;;;92.32;56.63;;;20.50;83.30;;;;;;5014170;28;20022;-75
2021/06/05 10:03:38;;;;;;;86.35;54.30;;;20.50;83.00;;;;;;5012250;28;20038;-75
2021/06/05 10:06:21;;;;;;;85.60;55.35;;;20.60;82.80;;;;;;5011141;28;20030;-74
2021/06/05 10:08:47;;;;;;;81.03;52.78;;;20.80;82.30;;;;;;5012522;28;20103;-74
2021/06/05 10:11:35;;;;;;;81.13;52.45;;;21.00;81.70;;;;;;5011552;28;20367;-75
2021/06/05 10:14:13;;;;;;;77.35;48.65;;;21.10;81.40;;;;;;5014890;28;20159;-74
2021/06/05 10:16:43;;;;;;;76.60;47.35;;;21.10;80.90;;;;;;5011981;28;20038;-74
2021/06/05 10:19:34;;;;;;;71.57;46.13;;;21.20;80.60;;;;;;5013789;28;20030;-75
2021/06/05 10:22:00;;;;;;;75.70;48.92;;;21.20;80.60;;;;;;5013555;28;20030;-74
2021/06/05 10:24:54;;;;;;;76.63;49.47;;;21.20;80.60;;;;;;5011844;28;20033;-74
2021/06/05 10:27:26;;;;;;;80.10;49.60;;;21.10;80.60;;;;;;5008472;28;20030;-75
2021/06/05 10:29:56;;;;;;;70.70;46.07;;;21.00;80.70;;;;;;4994109;28;20069;-74
2021/06/05 10:32:26;;;;;;;71.82;46.88;;;20.90;80.90;;;;;;5011416;28;20105;-74
2021/06/05 10:35:07;;;;;;;76.85;48.20;;;20.90;80.70;;;;;;5009436;28;20026;-74
2021/06/05 10:37:37;;;;;;;74.95;49.97;;;20.80;81.00;;;;;;5011243;28;20104;-81
2021/06/05 10:40:06;;;;;;;76.85;50.28;;;20.90;81.10;;;;;;5013366;28;20061;-76
2021/06/05 10:42:42;;;;;;;79.38;50.25;;;20.90;81.10;;;;;;5012084;28;20033;-78
2021/06/05 10:45:14;;;;;;;72.97;49.80;;;20.80;81.20;;;;;;5012345;28;20079;-73
2021/06/05 10:48:04;;;;;;;77.65;51.13;;;20.80;81.70;;;;;;5011421;28;20030;-74
2021/06/05 10:50:38;;;;;;;81.13;51.38;;;20.80;81.20;;;;;;5010354;28;20018;-73
2021/06/05 10:53:34;;;;;;;79.70;51.50;;;20.80;81.30;;;;;;5012829;28;20482;-73
2021/06/05 10:56:20;;;;;;;78.07;51.58;;;20.80;81.50;;;;;;5013289;28;20076;-73
2021/06/05 10:58:50;;;;;;;82.40;51.65;;;20.70;81.50;;;;;;5003100;28;20026;-73
2021/06/05 11:01:22;;;;;;;82.57;52.17;;;20.70;81.70;;;;;;5001729;28;20022;-76
2021/06/05 11:03:57;;;;;;;85.20;53.00;;;20.60;81.80;;;;;;5000326;28;20056;-77
2021/06/05 11:06:28;;;;;;;76.05;49.38;;;20.60;82.10;;;;;;5009922;28;20040;-73
2021/06/05 11:08:59;;;;;;;80.55;51.63;;;20.50;82.10;;;;;;5012816;28;20033;-73
2021/06/05 11:11:45;;;;;;;79.53;50.17;;;20.40;82.10;;;;;;5011687;28;20080;-74
2021/06/05 11:14:10;;;;;;;81.07;48.95;;;20.40;82.20;;;;;;5011948;28;20061;-74
2021/06/05 11:17:05;;;;;;;77.18;47.63;;;20.40;82.40;;;;;;5011439;28;20025;-80
2021/06/05 11:19:34;;;;;;;73.18;44.92;;;20.40;82.30;;;;;;5011256;28;20064;-74
2021/06/05 11:22:07;;;;;;;70.38;43.45;;;20.50;82.30;;;;;;5011285;28;20025;-73
2021/06/05 11:24:33;;;;;;;70.75;41.92;;;20.50;82.10;;;;;;5011407;28;20104;-74
2021/06/05 11:27:02;;;;;;;57.20;38.55;;;20.50;81.80;;;;;;5004367;28;20188;-73
2021/06/05 11:29:28;;;;;;;60.72;38.28;;;20.50;81.80;;;;;;5006279;28;20494;-73
2021/06/05 11:32:30;;;;;;;62.13;38.15;;;20.50;81.70;;;;;;4994666;28;20034;-73
2021/06/05 11:35:01;;;;;;;61.43;38.17;;;20.60;81.60;;;;;;5023850;28;20041;-73
2021/06/05 11:37:33;;;;;;;60.05;39.67;;;20.50;81.60;;;;;;5008518;28;20269;-74
2021/06/05 11:40:10;;;;;;;59.73;41.17;;;20.50;81.80;;;;;;5005275;28;20053;-73
2021/06/05 11:42:54;;;;;;;65.30;43.75;;;20.40;81.80;;;;;;5000941;28;20304;-73
2021/06/05 11:45:25;;;;;;;66.55;42.95;;;20.30;82.00;;;;;;5011764;28;20050;-72
2021/06/05 11:47:51;;;;;;;66.47;43.17;;;20.30;82.20;;;;;;5013246;28;20038;-72
2021/06/05 11:50:22;;;;;;;61.95;43.63;;;20.20;82.40;;;;;;5011801;28;20044;-72
2021/06/05 11:52:49;;;;;;;69.20;44.53;;;20.20;82.50;;;;;;5018761;28;20040;-74
2021/06/05 11:55:24;;;;;;;62.33;42.40;;;20.20;82.50;;;;;;5023647;28;20038;-76
2021/06/05 11:57:52;;;;;;;64.45;43.95;;;20.10;82.60;;;;;;5003735;28;20063;-74
2021/06/05 12:00:27;;;;;;;63.05;42.92;;;20.10;82.80;;;;;;5000892;28;20035;-73
2021/06/05 12:03:06;;;;;;;65.57;44.72;;;20.10;83.00;;;;;;5002115;28;20303;-73
2021/06/05 12:05:42;;;;;;;68.72;45.08;;;20.10;83.10;;;;;;5003096;28;20092;-73
2021/06/05 12:08:24;;;;;;;67.20;45.08;;;20.20;83.10;;;;;;5010332;28;20386;-74
2021/06/05 12:10:51;;;;;;;68.32;44.75;;;20.20;83.00;;;;;;4999540;28;20192;-74
2021/06/05 12:13:34;;;;;;;70.38;44.55;;;20.20;83.10;;;;;;4992641;28;20031;-74
2021/06/05 12:16:09;;;;;;;65.00;42.13;;;20.10;83.30;;;;;;4992804;28;20034;-74
2021/06/05 12:18:36;;;;;;;66.68;43.05;;;20.10;83.40;;;;;;4995191;28;20038;-75
2021/06/05 12:21:20;;;;;;;62.10;41.60;;;20.10;83.60;;;;;;5010082;28;20037;-74
2021/06/05 12:23:46;;;;;;;66.47;42.40;;;20.10;83.60;;;;;;5003197;28;20031;-80
2021/06/05 12:26:13;;;;;;;70.47;43.35;;;20.10;83.70;;;;;;4986659;28;20122;-74
2021/06/05 12:28:45;;;;;;;67.15;43.33;;;20.10;83.60;;;;;;5004480;28;20111;-75
2021/06/05 12:31:17;;;;;;;71.05;42.58;;;20.10;83.50;;;;;;5011111;28;20025;-75
2021/06/05 12:33:53;;;;;;;67.45;42.63;;;20.10;83.60;;;;;;5010502;28;20030;-73
2021/06/05 12:36:24;;;;;;;67.00;41.30;;;20.00;83.60;;;;;;5010879;28;20026;-73
2021/06/05 12:38:52;;;;;;;59.80;39.10;;;20.00;84.10;;;;;;5005234;28;20061;-78